createdAt,value
2018-07-23T00:00:51.823Z,20.47
2018-07-23T00:03:21.590Z,20.46
2018-07-23T00:05:51.652Z,20.42
2018-07-23T00:08:21.764Z,20.33
2018-07-23T00:10:51.868Z,20.28
2018-07-23T00:13:21.841Z,20.25
2018-07-23T00:15:51.525Z,20.16
2018-07-23T00:18:21.464Z,20.22
2018-07-23T00:20:51.210Z,20.19
2018-07-23T00:23:21.399Z,20.12
2018-07-23T00:25:51.037Z,20.14
2018-07-23T00:28:20.945Z,20.10
2018-07-23T00:30:50.598Z,20.07
2018-07-23T00:33:20.254Z,20.04
2018-07-23T00:35:49.989Z,20.04
2018-07-23T00:38:19.619Z,20.07
2018-07-23T00:40:49.260Z,19.93
2018-07-23T00:43:18.818Z,19.95
2018-07-23T00:45:49.050Z,20.00
2018-07-23T00:48:19.317Z,19.86
2018-07-23T00:50:48.847Z,19.87
2018-07-23T00:53:18.496Z,19.85
2018-07-23T00:55:47.778Z,19.85
2018-07-23T00:58:18.128Z,19.80
2018-07-23T01:00:47.788Z,19.71
2018-07-23T01:03:17.495Z,19.73
2018-07-23T01:05:47.679Z,19.75
2018-07-23T01:08:17.392Z,19.77
2018-07-23T01:10:47.055Z,19.62
2018-07-23T01:13:16.666Z,19.58
2018-07-23T01:15:46.303Z,19.58
2018-07-23T01:18:15.883Z,19.59
2018-07-23T01:20:45.587Z,19.49
2018-07-23T01:23:15.177Z,19.52
2018-07-23T01:25:44.771Z,19.62
2018-07-23T01:28:14.398Z,19.42
2018-07-23T01:30:50.247Z,19.54
2018-07-23T01:33:19.792Z,19.43
2018-07-23T01:35:49.956Z,19.34
2018-07-23T01:38:20.235Z,19.31
2018-07-23T01:40:49.810Z,19.38
2018-07-23T01:43:19.398Z,19.26
2018-07-23T01:45:49.048Z,19.17
2018-07-23T01:48:19.300Z,19.10
2018-07-23T01:50:48.952Z,19.03
2018-07-23T01:53:18.525Z,18.94
2018-07-23T01:55:48.158Z,18.92
2018-07-23T01:58:17.763Z,18.91
2018-07-23T02:00:47.371Z,19.03
2018-07-23T02:03:16.973Z,18.92
2018-07-23T02:05:46.701Z,18.93
2018-07-23T02:08:16.764Z,18.91
2018-07-23T02:10:46.403Z,19.10
2018-07-23T02:13:16.053Z,18.90
2018-07-23T02:15:45.674Z,18.84
2018-07-23T02:18:15.572Z,18.72
2018-07-23T02:20:45.172Z,18.66
2018-07-23T02:23:14.772Z,18.70
2018-07-23T02:25:44.460Z,18.72
2018-07-23T02:28:14.203Z,18.68
2018-07-23T02:30:43.775Z,18.59
2018-07-23T02:33:13.421Z,18.53
2018-07-23T02:35:43.028Z,18.59
2018-07-23T02:38:13.382Z,18.64
2018-07-23T02:40:43.039Z,18.53
2018-07-23T02:43:19.579Z,18.48
2018-07-23T02:45:49.314Z,18.43
2018-07-23T02:48:18.915Z,18.37
2018-07-23T02:50:49.106Z,18.38
2018-07-23T02:53:18.748Z,18.44
2018-07-23T02:55:49.031Z,18.36
2018-07-23T02:58:18.669Z,18.35
2018-07-23T03:00:48.921Z,18.30
2018-07-23T03:03:19.269Z,18.27
2018-07-23T03:05:48.955Z,18.46
2018-07-23T03:08:18.549Z,18.61
2018-07-23T03:10:47.851Z,18.59
2018-07-23T03:13:17.141Z,18.59
2018-07-23T03:15:46.479Z,18.45
2018-07-23T03:18:16.214Z,18.33
2018-07-23T03:20:45.813Z,18.23
2018-07-23T03:23:15.397Z,18.12
2018-07-23T03:25:45.141Z,18.08
2018-07-23T03:28:15.096Z,18.03
2018-07-23T03:30:44.900Z,17.85
2018-07-23T03:33:14.622Z,17.81
2018-07-23T03:35:44.780Z,17.86
2018-07-23T03:38:14.483Z,17.90
2018-07-23T03:40:44.353Z,17.83
2018-07-23T03:43:14.260Z,17.82
2018-07-23T03:45:44.710Z,17.82
2018-07-23T03:48:14.616Z,17.86
2018-07-23T03:50:44.394Z,17.91
2018-07-23T03:53:14.075Z,17.91
2018-07-23T03:55:43.784Z,18.02
2018-07-23T03:58:13.556Z,18.03
2018-07-23T04:00:43.291Z,18.07
2018-07-23T04:03:12.980Z,18.11
2018-07-23T04:05:42.992Z,18.19
2018-07-23T04:08:12.563Z,18.27
2018-07-23T04:10:42.658Z,18.19
2018-07-23T04:13:12.243Z,18.20
2018-07-23T04:15:42.313Z,18.33
2018-07-23T04:18:12.186Z,18.33
2018-07-23T04:20:41.850Z,18.49
2018-07-23T04:23:11.603Z,18.59
2018-07-23T04:25:41.457Z,19.21
2018-07-23T04:28:11.108Z,19.98
2018-07-23T04:30:41.104Z,20.22
2018-07-23T04:33:10.896Z,21.62
2018-07-23T04:35:40.585Z,21.93
2018-07-23T04:38:10.313Z,21.62
2018-07-23T04:40:40.141Z,22.01
2018-07-23T04:43:09.695Z,22.86
2018-07-23T04:45:39.655Z,24.57
2018-07-23T04:48:09.393Z,25.46
2018-07-23T04:50:39.135Z,25.98
2018-07-23T04:53:08.677Z,26.40
2018-07-23T04:55:38.307Z,25.03
2018-07-23T04:58:08.654Z,26.99
2018-07-23T05:00:38.694Z,26.46
2018-07-23T05:03:08.382Z,26.41
2018-07-23T05:05:37.972Z,26.27
2018-07-23T05:08:07.528Z,24.43
2018-07-23T05:10:37.158Z,24.02
2018-07-23T05:13:07.132Z,23.95
2018-07-23T05:15:37.455Z,23.77
2018-07-23T05:18:07.165Z,24.34
2018-07-23T05:20:39.883Z,23.53
2018-07-23T05:23:09.555Z,25.73
2018-07-23T05:25:39.210Z,25.34
2018-07-23T05:28:08.941Z,25.50
2018-07-23T05:30:38.668Z,26.57
2018-07-23T05:33:08.472Z,25.38
2018-07-23T05:35:38.077Z,25.05
2018-07-23T05:38:07.803Z,24.96
2018-07-23T05:40:37.492Z,24.41
2018-07-23T05:43:07.709Z,23.70
2018-07-23T05:45:37.457Z,24.80
2018-07-23T05:48:07.303Z,27.17
2018-07-23T05:50:36.926Z,25.86
2018-07-23T05:53:06.793Z,27.21
2018-07-23T05:55:36.664Z,29.36
2018-07-23T05:58:06.360Z,28.27
2018-07-23T06:00:36.053Z,27.64
2018-07-23T06:03:05.821Z,26.32
2018-07-23T06:05:35.430Z,25.45
2018-07-23T06:08:05.243Z,26.31
2018-07-23T06:10:34.896Z,25.30
2018-07-23T06:13:04.692Z,29.53
2018-07-23T06:15:35.139Z,28.38
2018-07-23T06:18:04.792Z,29.30
2018-07-23T06:20:34.512Z,27.68
2018-07-23T06:23:04.251Z,29.44
2018-07-23T06:25:34.024Z,28.99
2018-07-23T06:28:03.835Z,26.91
2018-07-23T06:30:33.481Z,28.88
2018-07-23T06:33:03.176Z,27.08
2018-07-23T06:35:33.054Z,27.30
2018-07-23T06:38:02.752Z,26.92
2018-07-23T06:40:33.071Z,26.39
2018-07-23T06:43:02.745Z,25.34
2018-07-23T06:45:32.452Z,26.94
2018-07-23T06:48:02.563Z,26.01
2018-07-23T06:50:32.236Z,29.59
2018-07-23T06:53:01.905Z,30.22
2018-07-23T06:55:31.552Z,27.09
2018-07-23T06:58:01.192Z,27.71
2018-07-23T07:00:31.028Z,29.17
2018-07-23T07:03:00.722Z,28.61
2018-07-23T07:05:30.337Z,29.32
2018-07-23T07:08:00.189Z,29.53
2018-07-23T07:10:29.860Z,31.13
2018-07-23T07:12:59.565Z,28.31
2018-07-23T07:15:30.245Z,28.25
2018-07-23T07:17:59.941Z,28.54
2018-07-23T07:20:29.681Z,28.52
2018-07-23T07:22:59.294Z,30.02
2018-07-23T07:25:28.966Z,30.33
2018-07-23T07:27:59.556Z,30.08
2018-07-23T07:30:29.245Z,29.49
2018-07-23T07:32:59.257Z,29.12
2018-07-23T07:35:28.997Z,29.93
2018-07-23T07:37:58.900Z,28.40
2018-07-23T07:40:28.632Z,30.32
2018-07-23T07:42:58.390Z,27.91
2018-07-23T07:45:27.980Z,31.22
2018-07-23T07:47:58.457Z,28.39
2018-07-23T07:50:28.717Z,29.82
2018-07-23T07:52:58.936Z,28.49
2018-07-23T07:55:28.616Z,28.79
2018-07-23T07:57:58.565Z,27.22
2018-07-23T08:00:28.291Z,29.08
2018-07-23T08:02:58.186Z,28.67
2018-07-23T08:05:27.936Z,30.64
2018-07-23T08:07:58.008Z,28.52
2018-07-23T08:10:27.671Z,28.13
2018-07-23T08:12:57.339Z,28.75
2018-07-23T08:15:26.980Z,27.98
2018-07-23T08:17:56.849Z,27.35
2018-07-23T08:20:26.151Z,28.68
2018-07-23T08:22:55.801Z,29.63
2018-07-23T08:25:25.667Z,27.54
2018-07-23T08:27:56.178Z,30.31
2018-07-23T08:30:26.269Z,28.39
2018-07-23T08:32:55.912Z,26.07
2018-07-23T08:35:25.622Z,26.36
2018-07-23T08:37:55.252Z,26.03
2018-07-23T08:40:27.879Z,26.23
2018-07-23T08:42:59.095Z,27.66
2018-07-23T08:45:28.816Z,27.84
2018-07-23T08:47:58.475Z,27.27
2018-07-23T08:50:28.766Z,29.32
2018-07-23T08:52:58.563Z,28.25
2018-07-23T08:55:28.976Z,26.82
2018-07-23T08:57:58.653Z,28.38
2018-07-23T09:00:28.351Z,26.95
2018-07-23T09:02:58.520Z,27.80
2018-07-23T09:05:28.178Z,26.63
2018-07-23T09:07:58.053Z,27.39
2018-07-23T09:10:27.759Z,27.08
2018-07-23T09:12:58.336Z,26.85
2018-07-23T09:15:28.608Z,26.76
2018-07-23T09:17:58.851Z,26.84
2018-07-23T09:20:28.598Z,27.72
2018-07-23T09:22:58.314Z,29.11
2018-07-23T09:25:31.951Z,29.76
2018-07-23T09:28:01.611Z,28.24
2018-07-23T09:30:36.543Z,31.14
2018-07-23T09:33:06.678Z,26.66
2018-07-23T09:35:36.431Z,30.62
2018-07-23T09:38:06.282Z,28.69
2018-07-23T09:40:36.000Z,27.93
2018-07-23T09:43:06.050Z,29.43
2018-07-23T09:45:36.040Z,29.82
2018-07-23T09:48:05.984Z,28.38
2018-07-23T09:50:35.805Z,28.98
2018-07-23T09:53:05.577Z,28.22
2018-07-23T09:55:35.281Z,29.40
2018-07-23T09:58:04.995Z,29.48
2018-07-23T10:00:40.040Z,29.26
2018-07-23T10:03:10.275Z,28.23
2018-07-23T10:05:39.964Z,29.37
2018-07-23T10:08:10.037Z,29.38
2018-07-23T10:10:40.081Z,28.26
2018-07-23T10:13:09.945Z,29.16
2018-07-23T10:15:40.161Z,29.35
2018-07-23T10:18:10.253Z,30.77
2018-07-23T10:20:40.034Z,29.80
2018-07-23T10:23:09.998Z,30.39
2018-07-23T10:25:39.680Z,29.05
2018-07-23T10:28:09.370Z,28.57
2018-07-23T10:30:39.105Z,29.81
2018-07-23T10:33:08.795Z,29.21
2018-07-23T10:35:38.643Z,28.46
2018-07-23T10:38:08.289Z,28.46
2018-07-23T10:40:38.103Z,26.87
2018-07-23T10:43:07.686Z,28.15
2018-07-23T10:45:37.357Z,27.20
2018-07-23T10:48:07.576Z,27.88
2018-07-23T10:50:37.324Z,27.98
2018-07-23T10:53:07.167Z,27.24
2018-07-23T10:55:36.836Z,27.52
2018-07-23T10:58:06.645Z,27.77
2018-07-23T11:00:36.735Z,28.94
2018-07-23T11:03:06.472Z,28.18
2018-07-23T11:05:36.193Z,29.39
2018-07-23T11:08:06.571Z,27.49
2018-07-23T11:10:36.193Z,27.84
2018-07-23T11:13:05.959Z,27.48
2018-07-23T11:15:35.991Z,27.40
2018-07-23T11:18:06.001Z,27.21
2018-07-23T11:20:36.422Z,27.14
2018-07-23T11:23:06.569Z,27.32
2018-07-23T11:25:40.134Z,28.00
2018-07-23T11:28:06.265Z,27.91
2018-07-23T11:30:36.317Z,27.28
2018-07-23T11:33:06.006Z,26.91
2018-07-23T11:35:35.754Z,27.31
2018-07-23T11:38:05.488Z,27.33
2018-07-23T11:40:35.110Z,27.08
2018-07-23T11:43:04.755Z,27.07
2018-07-23T11:45:34.472Z,26.76
2018-07-23T11:48:04.114Z,26.81
2018-07-23T11:50:33.715Z,27.33
2018-07-23T11:53:03.305Z,27.35
2018-07-23T11:55:32.985Z,27.02
2018-07-23T11:58:03.178Z,26.76
2018-07-23T12:00:32.834Z,26.78
2018-07-23T12:03:03.258Z,27.61
2018-07-23T12:05:32.847Z,27.65
2018-07-23T12:08:02.607Z,27.99
2018-07-23T12:10:32.388Z,28.00
2018-07-23T12:13:02.074Z,28.06
2018-07-23T12:15:33.180Z,27.74
2018-07-23T12:18:02.786Z,28.14
2018-07-23T12:20:33.240Z,27.69
2018-07-23T12:23:02.990Z,27.32
2018-07-23T12:25:32.923Z,27.28
2018-07-23T12:28:02.571Z,27.73
2018-07-23T12:30:32.361Z,27.38
2018-07-23T12:33:02.157Z,27.62
2018-07-23T12:35:31.808Z,27.16
2018-07-23T12:38:01.592Z,27.44
2018-07-23T12:40:31.205Z,27.13
2018-07-23T12:43:01.155Z,27.80
2018-07-23T12:45:30.800Z,28.08
2018-07-23T12:48:00.552Z,28.14
2018-07-23T12:50:30.176Z,28.41
2018-07-23T12:52:59.824Z,27.80
2018-07-23T12:55:29.571Z,28.38
2018-07-23T12:57:59.530Z,28.58
2018-07-23T13:00:29.162Z,27.96
2018-07-23T13:02:58.781Z,27.70
2018-07-23T13:05:32.951Z,27.73
2018-07-23T13:08:04.225Z,27.97
2018-07-23T13:10:33.951Z,27.83
2018-07-23T13:13:03.651Z,27.60
2018-07-23T13:15:34.055Z,28.06
2018-07-23T13:18:03.758Z,27.99
2018-07-23T13:20:33.559Z,28.33
2018-07-23T13:23:03.238Z,28.43
2018-07-23T13:25:33.050Z,28.21
2018-07-23T13:28:02.774Z,29.12
2018-07-23T13:30:32.412Z,28.83
2018-07-23T13:33:02.240Z,28.44
2018-07-23T13:35:32.107Z,28.68
2018-07-23T13:38:01.896Z,28.81
2018-07-23T13:40:31.870Z,28.39
2018-07-23T13:43:01.567Z,28.53
2018-07-23T13:45:33.008Z,28.55
2018-07-23T13:48:02.728Z,28.68
2018-07-23T13:50:32.135Z,28.13
2018-07-23T13:53:01.953Z,28.47
2018-07-23T13:55:31.596Z,29.46
2018-07-23T13:58:01.277Z,28.35
2018-07-23T14:00:31.318Z,28.63
2018-07-23T14:03:00.913Z,28.13
2018-07-23T14:05:31.068Z,28.27
2018-07-23T14:08:00.761Z,28.58
2018-07-23T14:10:30.990Z,27.97
2018-07-23T14:13:00.742Z,28.15
2018-07-23T14:15:30.994Z,28.35
2018-07-23T14:18:00.913Z,28.25
2018-07-23T14:20:30.639Z,28.25
2018-07-23T14:23:00.377Z,28.14
2018-07-23T14:25:30.425Z,28.17
2018-07-23T14:28:04.616Z,28.08
2018-07-23T14:30:34.752Z,28.19
2018-07-23T14:33:04.422Z,28.38
2018-07-23T14:35:34.330Z,28.92
2018-07-23T14:38:04.138Z,28.76
2018-07-23T14:40:34.791Z,29.41
2018-07-23T14:43:04.428Z,29.45
2018-07-23T14:45:34.544Z,28.62
2018-07-23T14:48:04.187Z,28.70
2018-07-23T14:50:34.116Z,28.99
2018-07-23T14:53:03.956Z,28.88
2018-07-23T14:55:34.979Z,28.61
2018-07-23T14:58:04.666Z,28.20
2018-07-23T15:00:34.662Z,28.43
2018-07-23T15:03:04.366Z,28.67
2018-07-23T15:05:34.556Z,28.53
2018-07-23T15:08:04.358Z,28.62
2018-07-23T15:10:34.277Z,28.71
2018-07-23T15:13:04.099Z,28.78
2018-07-23T15:15:34.059Z,29.23
2018-07-23T15:18:03.809Z,28.70
2018-07-23T15:20:33.545Z,28.68
2018-07-23T15:23:03.423Z,28.98
2018-07-23T15:25:33.232Z,28.87
2018-07-23T15:28:03.767Z,29.09
2018-07-23T15:30:33.381Z,29.04
2018-07-23T15:33:03.088Z,28.94
2018-07-23T15:35:36.213Z,29.15
2018-07-23T15:38:05.924Z,29.13
2018-07-23T15:40:35.843Z,29.30
2018-07-23T15:43:05.567Z,29.30
2018-07-23T15:45:35.415Z,29.07
2018-07-23T15:48:05.055Z,28.81
2018-07-23T15:50:34.649Z,28.90
2018-07-23T15:53:04.353Z,28.95
2018-07-23T15:55:34.709Z,28.32
2018-07-23T15:58:04.974Z,28.50
2018-07-23T16:00:34.253Z,28.67
2018-07-23T16:03:03.969Z,29.06
2018-07-23T16:05:33.601Z,29.11
2018-07-23T16:08:03.435Z,29.15
2018-07-23T16:10:32.995Z,29.04
2018-07-23T16:13:02.717Z,28.82
2018-07-23T16:15:32.535Z,28.92
2018-07-23T16:18:02.424Z,28.49
2018-07-23T16:20:32.856Z,28.67
2018-07-23T16:23:02.481Z,28.50
2018-07-23T16:25:32.230Z,28.77
2018-07-23T16:28:02.412Z,28.22
2018-07-23T16:30:31.995Z,28.51
2018-07-23T16:33:01.624Z,28.47
2018-07-23T16:35:31.302Z,28.84
2018-07-23T16:38:01.096Z,28.71
2018-07-23T16:40:30.741Z,28.47
2018-07-23T16:43:00.519Z,28.67
2018-07-23T16:45:30.221Z,28.47
2018-07-23T16:47:59.864Z,28.37
2018-07-23T16:50:29.553Z,28.34
2018-07-23T16:52:59.361Z,28.29
2018-07-23T16:55:29.236Z,28.50
2018-07-23T16:57:59.539Z,28.29
2018-07-23T17:00:29.271Z,28.74
2018-07-23T17:02:59.031Z,28.58
2018-07-23T17:05:28.668Z,28.89
2018-07-23T17:07:58.297Z,28.36
2018-07-23T17:10:27.774Z,28.46
2018-07-23T17:12:57.549Z,28.35
2018-07-23T17:15:27.269Z,28.50
2018-07-23T17:17:56.930Z,28.62
2018-07-23T17:20:27.496Z,28.52
2018-07-23T17:22:57.202Z,28.34
2018-07-23T17:25:26.872Z,28.54
2018-07-23T17:27:56.542Z,28.36
2018-07-23T17:30:26.237Z,28.22
2018-07-23T17:32:55.954Z,28.55
2018-07-23T17:35:25.684Z,28.59
2018-07-23T17:37:55.277Z,28.53
2018-07-23T17:40:24.924Z,28.54
2018-07-23T17:42:54.585Z,28.33
2018-07-23T17:45:24.716Z,28.09
2018-07-23T17:47:54.973Z,28.31
2018-07-23T17:50:24.846Z,28.51
2018-07-23T17:52:54.517Z,28.33
2018-07-23T17:55:24.280Z,28.11
2018-07-23T17:57:54.098Z,28.25
2018-07-23T18:00:24.130Z,28.19
2018-07-23T18:02:53.823Z,28.16
2018-07-23T18:05:23.665Z,28.16
2018-07-23T18:07:53.626Z,28.19
2018-07-23T18:10:23.059Z,27.99
2018-07-23T18:12:52.993Z,27.94
2018-07-23T18:15:23.150Z,27.98
2018-07-23T18:17:53.190Z,28.01
2018-07-23T18:20:22.994Z,28.03
2018-07-23T18:22:52.729Z,27.90
2018-07-23T18:25:22.963Z,27.96
2018-07-23T18:27:52.688Z,27.80
2018-07-23T18:30:22.456Z,27.78
2018-07-23T18:32:52.527Z,27.76
2018-07-23T18:35:22.201Z,27.83
2018-07-23T18:37:52.888Z,27.77
2018-07-23T18:40:22.607Z,27.71
2018-07-23T18:42:52.770Z,27.71
2018-07-23T18:45:22.488Z,27.54
2018-07-23T18:47:52.726Z,27.43
2018-07-23T18:50:22.567Z,27.31
2018-07-23T18:52:52.594Z,27.31
2018-07-23T18:55:22.261Z,27.34
2018-07-23T18:57:52.102Z,26.97
2018-07-23T19:00:21.987Z,26.86
2018-07-23T19:02:52.335Z,26.68
2018-07-23T19:05:22.019Z,26.76
2018-07-23T19:07:52.106Z,26.96
2018-07-23T19:10:21.810Z,26.61
2018-07-23T19:12:52.540Z,26.63
2018-07-23T19:15:22.183Z,26.31
2018-07-23T19:17:52.027Z,26.16
2018-07-23T19:20:21.885Z,26.24
2018-07-23T19:22:51.489Z,26.05
2018-07-23T19:25:21.312Z,25.84
2018-07-23T19:27:51.117Z,25.78
2018-07-23T19:30:27.485Z,25.62
2018-07-23T19:32:56.845Z,25.51
2018-07-23T19:35:26.534Z,25.56
2018-07-23T19:37:56.463Z,25.57
2018-07-23T19:40:26.196Z,25.39
2018-07-23T19:42:55.988Z,25.26
2018-07-23T19:45:25.694Z,25.13
2018-07-23T19:47:56.708Z,25.37
2018-07-23T19:50:26.256Z,25.10
2018-07-23T19:52:56.213Z,24.92
2018-07-23T19:55:25.905Z,25.05
2018-07-23T19:57:56.326Z,24.80
2018-07-23T20:00:26.001Z,24.64
2018-07-23T20:02:56.225Z,24.55
2018-07-23T20:05:25.883Z,24.48
2018-07-23T20:07:56.011Z,24.41
2018-07-23T20:10:25.729Z,24.46
2018-07-23T20:12:55.699Z,24.33
2018-07-23T20:15:25.380Z,24.27
2018-07-23T20:17:55.651Z,24.21
2018-07-23T20:20:25.338Z,24.06
2018-07-23T20:22:55.762Z,23.97
2018-07-23T20:25:25.454Z,24.04
2018-07-23T20:27:55.888Z,23.85
2018-07-23T20:30:25.689Z,23.81
2018-07-23T20:32:55.474Z,23.85
2018-07-23T20:35:25.521Z,23.77
2018-07-23T20:37:55.654Z,23.57
2018-07-23T20:40:25.840Z,23.56
2018-07-23T20:42:56.905Z,23.51
2018-07-23T20:45:27.780Z,23.51
2018-07-23T20:47:58.611Z,23.53
2018-07-23T20:50:28.450Z,23.41
2018-07-23T20:52:58.971Z,23.29
2018-07-23T20:55:28.790Z,23.26
2018-07-23T20:57:58.873Z,23.21
2018-07-23T21:00:28.835Z,23.19
2018-07-23T21:02:58.582Z,23.15
2018-07-23T21:05:28.262Z,23.11
2018-07-23T21:07:58.693Z,23.05
2018-07-23T21:10:28.398Z,22.93
2018-07-23T21:12:58.583Z,22.85
2018-07-23T21:15:28.480Z,22.80
2018-07-23T21:17:58.839Z,22.82
2018-07-23T21:20:28.589Z,22.81
2018-07-23T21:22:58.362Z,22.83
2018-07-23T21:25:28.141Z,22.78
2018-07-23T21:27:57.836Z,22.73
2018-07-23T21:30:27.688Z,22.61
2018-07-23T21:32:57.578Z,22.66
2018-07-23T21:35:27.325Z,22.57
2018-07-23T21:37:57.160Z,22.52
2018-07-23T21:40:26.818Z,22.54
2018-07-23T21:42:56.748Z,22.60
2018-07-23T21:45:26.358Z,22.62
2018-07-23T21:47:56.066Z,22.51
2018-07-23T21:50:25.825Z,22.41
2018-07-23T21:52:55.412Z,22.34
2018-07-23T21:55:25.217Z,22.26
2018-07-23T21:57:54.990Z,22.22
2018-07-23T22:00:25.535Z,22.18
2018-07-23T22:02:55.257Z,22.26
2018-07-23T22:05:25.051Z,22.14
2018-07-23T22:07:54.670Z,22.15
2018-07-23T22:10:24.414Z,22.12
2018-07-23T22:12:54.504Z,22.04
2018-07-23T22:15:24.218Z,22.04
2018-07-23T22:17:53.855Z,22.03
2018-07-23T22:20:24.181Z,22.03
2018-07-23T22:22:54.394Z,22.29
2018-07-23T22:25:24.042Z,22.12
2018-07-23T22:27:53.710Z,22.08
2018-07-23T22:30:23.344Z,22.06
2018-07-23T22:32:53.249Z,22.53
2018-07-23T22:35:23.221Z,22.11
2018-07-23T22:37:52.999Z,22.10
2018-07-23T22:40:22.784Z,21.94
2018-07-23T22:42:52.837Z,21.93
2018-07-23T22:45:22.598Z,22.00
2018-07-23T22:47:53.296Z,21.91
2018-07-23T22:50:23.108Z,21.77
2018-07-23T22:52:52.823Z,21.75
2018-07-23T22:55:22.638Z,21.60
2018-07-23T22:57:53.125Z,21.57
2018-07-23T23:00:22.807Z,21.51
2018-07-23T23:02:52.555Z,21.49
2018-07-23T23:05:22.347Z,21.43
2018-07-23T23:07:52.057Z,21.36
2018-07-23T23:10:21.712Z,21.47
2018-07-23T23:12:58.239Z,21.35
2018-07-23T23:15:27.912Z,21.36
2018-07-23T23:17:57.628Z,21.29
2018-07-23T23:20:27.396Z,21.30
2018-07-23T23:22:57.024Z,21.26
2018-07-23T23:25:26.683Z,21.21
2018-07-23T23:27:56.674Z,21.34
2018-07-23T23:30:27.806Z,21.40
2018-07-23T23:32:57.425Z,21.62
2018-07-23T23:35:27.043Z,21.32
2018-07-23T23:37:56.771Z,21.22
2018-07-23T23:40:26.591Z,21.16
2018-07-23T23:42:56.210Z,21.10
2018-07-23T23:45:25.881Z,21.04
2018-07-23T23:47:56.272Z,21.04
2018-07-23T23:50:25.856Z,20.99
2018-07-23T23:52:56.149Z,20.98
2018-07-23T23:55:25.832Z,20.95
2018-07-23T23:57:55.410Z,21.06
